createdAt,value
2018-04-11T00:02:25.072Z,25.63
2018-04-11T00:04:52.572Z,26.00
2018-04-11T00:07:20.047Z,29.20
2018-04-11T00:09:47.525Z,30.70
2018-04-11T00:12:14.995Z,28.23
2018-04-11T00:14:42.519Z,28.10
2018-04-11T00:17:10.772Z,27.23
2018-04-11T00:19:38.291Z,32.23
2018-04-11T00:22:05.792Z,26.60
2018-04-11T00:24:33.267Z,29.43
2018-04-11T00:27:01.525Z,26.87
2018-04-11T00:29:29.110Z,28.97
2018-04-11T00:31:57.358Z,27.20
2018-04-11T00:34:25.166Z,28.63
2018-04-11T00:36:52.621Z,29.60
2018-04-11T00:39:20.166Z,29.97
2018-04-11T00:41:47.688Z,29.20
2018-04-11T00:44:15.956Z,30.30
2018-04-11T00:46:43.435Z,30.83
2018-04-11T00:49:11.740Z,30.50
2018-04-11T00:51:39.242Z,30.20
2018-04-11T00:54:08.225Z,32.17
2018-04-11T00:56:35.791Z,32.03
2018-04-11T00:59:03.280Z,32.10
2018-04-11T01:01:30.835Z,31.47
2018-04-11T01:03:58.368Z,28.70
2018-04-11T01:06:25.871Z,29.13
2018-04-11T01:08:53.386Z,28.67
2018-04-11T01:11:20.895Z,26.30
2018-04-11T01:13:48.389Z,27.80
2018-04-11T01:16:15.922Z,30.30
2018-04-11T01:18:43.488Z,29.90
2018-04-11T01:21:10.987Z,28.70
2018-04-11T01:23:39.368Z,28.37
2018-04-11T01:26:06.916Z,29.07
2018-04-11T01:28:35.293Z,31.27
2018-04-11T01:31:03.524Z,29.47
2018-04-11T01:33:31.025Z,28.20
2018-04-11T01:35:59.374Z,28.90
2018-04-11T01:38:27.742Z,30.70
2018-04-11T01:40:55.218Z,29.10
2018-04-11T01:43:23.478Z,29.87
2018-04-11T01:45:51.035Z,28.03
2018-04-11T01:48:18.516Z,30.80
2018-04-11T01:50:46.798Z,30.27
2018-04-11T01:53:14.310Z,32.17
2018-04-11T01:55:41.871Z,31.27
2018-04-11T01:58:09.471Z,29.20
2018-04-11T02:00:36.957Z,32.03
2018-04-11T02:03:04.458Z,32.97
2018-04-11T02:05:31.935Z,33.67
2018-04-11T02:08:00.201Z,34.17
2018-04-11T02:10:28.578Z,33.43
2018-04-11T02:12:56.027Z,35.23
2018-04-11T02:15:24.277Z,36.87
2018-04-11T02:17:51.796Z,34.77
2018-04-11T02:20:19.286Z,34.40
2018-04-11T02:22:46.772Z,34.87
2018-04-11T02:25:14.245Z,39.03
2018-04-11T02:27:41.776Z,35.23
2018-04-11T02:30:09.253Z,34.10
2018-04-11T02:32:37.528Z,34.63
2018-04-11T02:35:05.788Z,34.30
2018-04-11T02:37:34.116Z,32.27
2018-04-11T02:40:01.826Z,32.10
2018-04-11T02:42:29.332Z,32.73
2018-04-11T02:44:56.837Z,33.03
2018-04-11T02:47:25.097Z,33.90
2018-04-11T02:49:52.681Z,31.70
2018-04-11T02:52:21.039Z,33.93
2018-04-11T02:54:48.600Z,33.60
2018-04-11T02:57:16.096Z,32.60
2018-04-11T02:59:43.608Z,33.40
2018-04-11T03:02:11.179Z,35.90
2018-04-11T03:04:39.431Z,34.10
2018-04-11T03:07:06.896Z,34.93
2018-04-11T03:09:35.213Z,36.80
2018-04-11T03:12:02.722Z,35.57
2018-04-11T03:14:30.258Z,36.50
2018-04-11T03:16:57.726Z,39.33
2018-04-11T03:19:25.269Z,39.03
2018-04-11T03:21:52.877Z,39.53
2018-04-11T03:24:20.305Z,41.33
2018-04-11T03:26:47.853Z,39.70
2018-04-11T03:29:15.294Z,41.80
2018-04-11T03:31:42.829Z,41.97
2018-04-11T03:34:10.309Z,44.13
2018-04-11T03:36:37.872Z,43.40
2018-04-11T03:39:05.337Z,43.10
2018-04-11T03:41:32.889Z,42.90
2018-04-11T03:44:00.440Z,44.13
2018-04-11T03:46:28.002Z,43.33
2018-04-11T03:48:55.569Z,40.70
2018-04-11T03:51:23.124Z,43.40
2018-04-11T03:53:52.094Z,43.17
2018-04-11T03:56:19.535Z,47.13
2018-04-11T03:58:47.009Z,45.80
2018-04-11T04:01:14.601Z,45.50
2018-04-11T04:03:42.129Z,41.80
2018-04-11T04:06:09.572Z,45.10
2018-04-11T04:08:37.811Z,43.17
2018-04-11T04:11:05.284Z,42.23
2018-04-11T04:13:44.893Z,44.30
2018-04-11T04:16:24.285Z,46.33
2018-04-11T04:19:03.693Z,45.50
2018-04-11T04:21:31.188Z,44.10
2018-04-11T04:23:58.633Z,48.13
2018-04-11T04:26:26.092Z,43.10
2018-04-11T04:28:53.657Z,45.80
2018-04-11T04:31:21.206Z,44.43
2018-04-11T04:33:48.662Z,42.13
2018-04-11T04:36:16.118Z,41.50
2018-04-11T04:38:43.594Z,43.27
2018-04-11T04:41:11.131Z,44.87
2018-04-11T04:43:38.582Z,44.87
2018-04-11T04:46:06.117Z,47.57
2018-04-11T04:48:33.589Z,46.00
2018-04-11T04:51:01.034Z,42.47
2018-04-11T04:53:28.607Z,45.07
2018-04-11T04:55:56.150Z,44.77
2018-04-11T04:58:23.626Z,44.47
2018-04-11T05:00:51.102Z,46.90
2018-04-11T05:03:18.641Z,45.83
2018-04-11T05:05:46.230Z,44.23
2018-04-11T05:08:14.576Z,39.00
2018-04-11T05:10:42.109Z,39.60
2018-04-11T05:13:09.692Z,38.33
2018-04-11T05:15:37.174Z,39.33
2018-04-11T05:18:04.705Z,37.50
2018-04-11T05:20:32.246Z,39.93
2018-04-11T05:22:59.748Z,39.67
2018-04-11T05:25:28.004Z,38.53
2018-04-11T05:27:55.447Z,42.33
2018-04-11T05:30:22.994Z,39.40
2018-04-11T05:32:50.477Z,39.90
2018-04-11T05:35:19.045Z,43.90
2018-04-11T05:37:46.489Z,40.17
2018-04-11T05:40:13.972Z,43.20
2018-04-11T05:42:42.918Z,41.20
2018-04-11T05:45:10.365Z,39.43
2018-04-11T05:47:37.819Z,43.47
2018-04-11T05:50:05.281Z,40.23
2018-04-11T05:52:32.739Z,40.77
2018-04-11T05:55:01.137Z,41.03
2018-04-11T05:57:28.606Z,41.40
2018-04-11T05:59:56.160Z,41.37
2018-04-11T06:02:25.115Z,38.60
2018-04-11T06:04:52.588Z,42.53
2018-04-11T06:07:20.867Z,41.03
2018-04-11T06:09:48.334Z,42.07
2018-04-11T06:12:15.809Z,42.30
2018-04-11T06:14:43.258Z,41.30
2018-04-11T06:17:10.794Z,42.43
2018-04-11T06:19:39.032Z,46.10
2018-04-11T06:22:07.175Z,47.90
2018-04-11T06:24:35.405Z,47.73
2018-04-11T06:27:02.869Z,51.23
2018-04-11T06:29:30.421Z,49.80
2018-04-11T06:31:57.954Z,52.53
2018-04-11T06:34:25.442Z,49.27
2018-04-11T06:36:52.997Z,49.83
2018-04-11T06:39:20.456Z,47.93
2018-04-11T06:41:47.948Z,49.47
2018-04-11T06:44:16.182Z,48.40
2018-04-11T06:46:43.742Z,48.07
2018-04-11T06:49:11.181Z,51.10
2018-04-11T06:51:38.832Z,49.50
2018-04-11T06:54:06.262Z,49.07
2018-04-11T06:56:34.499Z,51.43
2018-04-11T06:59:02.074Z,50.43
2018-04-11T07:01:29.537Z,47.27
2018-04-11T07:03:57.769Z,53.27
2018-04-11T07:06:25.232Z,53.27
2018-04-11T07:08:52.942Z,52.43
2018-04-11T07:11:21.180Z,54.47
2018-04-11T07:13:48.727Z,50.23
2018-04-11T07:16:16.276Z,51.70
2018-04-11T07:18:43.737Z,53.40
2018-04-11T07:21:11.293Z,53.60
2018-04-11T07:23:38.841Z,54.63
2018-04-11T07:26:06.309Z,52.40
2018-04-11T07:28:33.862Z,53.60
2018-04-11T07:31:01.418Z,54.47
2018-04-11T07:33:28.871Z,56.97
2018-04-11T07:35:56.336Z,55.30
2018-04-11T07:38:23.895Z,55.00
2018-04-11T07:40:51.388Z,51.97
2018-04-11T07:43:19.605Z,55.30
2018-04-11T07:45:47.079Z,54.83
2018-04-11T07:48:14.540Z,55.63
2018-04-11T07:50:42.097Z,57.77
2018-04-11T07:53:09.674Z,53.90
2018-04-11T07:55:37.203Z,54.07
2018-04-11T07:58:04.667Z,57.10
2018-04-11T08:00:32.133Z,55.17
2018-04-11T08:02:59.597Z,54.93
2018-04-11T08:05:27.816Z,54.57
2018-04-11T08:07:55.310Z,54.87
2018-04-11T08:10:22.853Z,58.00
2018-04-11T08:12:50.425Z,59.27
2018-04-11T08:15:17.869Z,57.50
2018-04-11T08:17:45.328Z,53.40
2018-04-11T08:20:12.857Z,53.60
2018-04-11T08:22:40.307Z,58.00
2018-04-11T08:25:07.794Z,55.87
2018-04-11T08:27:35.253Z,57.53
2018-04-11T08:30:02.807Z,59.27
2018-04-11T08:32:30.253Z,55.93
2018-04-11T08:34:57.717Z,56.37
2018-04-11T08:37:25.195Z,56.60
2018-04-11T08:39:52.733Z,57.67
2018-04-11T08:42:20.285Z,57.40
2018-04-11T08:44:47.853Z,54.30
2018-04-11T08:47:15.399Z,56.87
2018-04-11T08:49:42.861Z,56.13
2018-04-11T08:52:10.358Z,55.43
2018-04-11T08:54:38.626Z,57.23
2018-04-11T08:57:06.833Z,56.87
2018-04-11T08:59:34.297Z,54.70
2018-04-11T09:02:01.743Z,57.23
2018-04-11T09:04:29.257Z,57.40
2018-04-11T09:06:56.811Z,57.13
2018-04-11T09:09:24.350Z,55.77
2018-04-11T09:11:51.822Z,55.60
2018-04-11T09:14:19.352Z,53.67
2018-04-11T09:16:46.840Z,53.33
2018-04-11T09:19:14.415Z,53.13
2018-04-11T09:21:42.648Z,53.80
2018-04-11T09:24:10.110Z,53.57
2018-04-11T09:26:37.659Z,56.33
2018-04-11T09:29:05.117Z,51.20
2018-04-11T09:31:32.578Z,51.17
2018-04-11T09:34:00.089Z,53.70
2018-04-11T09:36:27.583Z,50.37
2018-04-11T09:38:55.063Z,51.20
2018-04-11T09:41:22.524Z,50.90
2018-04-11T09:43:49.958Z,53.23
2018-04-11T09:46:17.533Z,50.87
2018-04-11T09:48:45.764Z,52.87
2018-04-11T09:51:13.222Z,49.70
2018-04-11T09:53:40.690Z,56.07
2018-04-11T09:56:08.163Z,53.00
2018-04-11T09:58:35.724Z,61.23
2018-04-11T10:01:04.922Z,63.00
2018-04-11T10:03:32.394Z,61.20
2018-04-11T10:06:00.631Z,64.83
2018-04-11T10:08:28.091Z,64.17
2018-04-11T10:10:55.570Z,61.33
2018-04-11T10:13:24.560Z,60.10
2018-04-11T10:15:52.069Z,57.47
2018-04-11T10:18:19.495Z,57.40
2018-04-11T10:20:46.983Z,56.73
2018-04-11T10:23:14.427Z,53.80
2018-04-11T10:25:41.921Z,57.33
2018-04-11T10:28:09.376Z,58.50
2018-04-11T10:30:36.842Z,57.13
2018-04-11T10:33:04.303Z,60.17
2018-04-11T10:35:31.814Z,62.00
2018-04-11T10:37:59.316Z,57.47
2018-04-11T10:40:26.862Z,56.63
2018-04-11T10:42:54.419Z,55.90
2018-04-11T10:45:21.973Z,55.80
2018-04-11T10:47:49.457Z,53.80
2018-04-11T10:50:17.714Z,54.93
2018-04-11T10:52:45.356Z,55.03
2018-04-11T10:55:12.825Z,52.93
2018-04-11T10:57:40.379Z,53.00
2018-04-11T11:00:07.957Z,53.63
2018-04-11T11:02:36.934Z,54.80
2018-04-11T11:05:04.489Z,52.10
2018-04-11T11:07:32.046Z,50.70
2018-04-11T11:09:59.536Z,52.60
2018-04-11T11:12:27.765Z,55.73
2018-04-11T11:14:55.327Z,57.47
2018-04-11T11:17:22.990Z,66.90
2018-04-11T11:20:01.427Z,60.43
2018-04-11T11:22:28.878Z,54.40
2018-04-11T11:24:56.363Z,52.63
2018-04-11T11:27:23.893Z,52.33
2018-04-11T11:29:51.429Z,52.20
2018-04-11T11:32:18.882Z,53.37
2018-04-11T11:34:46.322Z,49.20
2018-04-11T11:37:13.808Z,52.97
2018-04-11T11:39:41.280Z,53.47
2018-04-11T11:42:08.822Z,49.20
2018-04-11T11:44:37.817Z,51.27
2018-04-11T11:47:05.354Z,49.87
2018-04-11T11:49:33.035Z,51.87
2018-04-11T11:52:00.512Z,53.03
2018-04-11T11:54:28.004Z,51.90
2018-04-11T11:56:55.469Z,49.20
2018-04-11T11:59:22.933Z,50.57
2018-04-11T12:01:50.400Z,49.30
2018-04-11T12:04:17.955Z,50.70
2018-04-11T12:06:45.426Z,49.47
2018-04-11T12:09:12.903Z,52.63
2018-04-11T12:11:41.184Z,53.20
2018-04-11T12:14:09.410Z,54.53
2018-04-11T12:16:36.888Z,55.43
2018-04-11T12:19:04.334Z,54.07
2018-04-11T12:21:31.810Z,54.37
2018-04-11T12:23:59.347Z,48.20
2018-04-11T12:26:26.900Z,51.77
2018-04-11T12:28:54.462Z,48.83
2018-04-11T12:31:21.909Z,48.17
2018-04-11T12:33:49.372Z,46.97
2018-04-11T12:36:16.859Z,45.27
2018-04-11T12:38:45.119Z,44.03
2018-04-11T12:41:12.567Z,42.50
2018-04-11T12:43:40.031Z,44.53
2018-04-11T12:46:07.575Z,40.17
2018-04-11T12:48:35.029Z,40.87
2018-04-11T12:51:02.489Z,41.30
2018-04-11T12:53:30.701Z,31.97
2018-04-11T12:55:58.225Z,29.80
2018-04-11T12:58:25.778Z,29.77
2018-04-11T13:00:53.318Z,27.60
2018-04-11T13:03:20.913Z,27.50
2018-04-11T13:05:48.365Z,26.50
2018-04-11T13:08:15.903Z,27.73
2018-04-11T13:10:43.454Z,26.93
2018-04-11T13:13:11.027Z,26.17
2018-04-11T13:15:38.578Z,24.17
2018-04-11T13:18:06.137Z,23.23
2018-04-11T13:20:33.610Z,21.60
2018-04-11T13:23:01.157Z,21.93
2018-04-11T13:25:28.695Z,23.37
2018-04-11T13:27:56.154Z,40.57
2018-04-11T13:30:23.626Z,42.03
2018-04-11T13:32:51.171Z,46.50
2018-04-11T13:35:18.623Z,50.63
2018-04-11T13:37:46.111Z,57.50
2018-04-11T13:40:14.376Z,56.90
2018-04-11T13:42:41.849Z,61.37
2018-04-11T13:45:10.089Z,61.03
2018-04-11T13:47:37.686Z,62.67
2018-04-11T13:50:05.989Z,62.77
2018-04-11T13:52:33.471Z,65.47
2018-04-11T13:55:00.931Z,67.10
2018-04-11T13:57:28.431Z,65.20
2018-04-11T13:59:55.951Z,67.17
2018-04-11T14:02:23.503Z,65.73
2018-04-11T14:04:50.959Z,69.40
2018-04-11T14:07:18.510Z,62.47
2018-04-11T14:09:45.975Z,63.17
2018-04-11T14:12:13.533Z,65.00
2018-04-11T14:14:40.997Z,64.30
2018-04-11T14:17:09.371Z,64.20
2018-04-11T14:19:36.811Z,62.73
2018-04-11T14:22:04.378Z,62.40
2018-04-11T14:24:31.858Z,63.10
2018-04-11T14:26:59.314Z,61.70
2018-04-11T14:29:26.766Z,60.10
2018-04-11T14:31:55.020Z,59.30
2018-04-11T14:34:22.573Z,66.77
2018-04-11T14:36:50.040Z,67.57
2018-04-11T14:39:17.585Z,63.63
2018-04-11T14:41:45.073Z,65.57
2018-04-11T14:44:13.309Z,64.60
2018-04-11T14:46:40.761Z,59.60
2018-04-11T14:49:08.231Z,58.77
2018-04-11T14:51:35.820Z,55.80
2018-04-11T14:54:04.048Z,58.30
2018-04-11T14:56:31.631Z,58.73
2018-04-11T14:58:59.100Z,62.60
2018-04-11T15:01:26.646Z,57.00
2018-04-11T15:03:54.202Z,59.27
2018-04-11T15:06:21.686Z,59.40
2018-04-11T15:08:49.902Z,52.87
2018-04-11T15:11:17.367Z,52.93
2018-04-11T15:13:44.945Z,50.50
2018-04-11T15:16:12.388Z,52.57
2018-04-11T15:18:39.848Z,49.90
2018-04-11T15:21:07.314Z,47.97
2018-04-11T15:23:34.756Z,45.10
2018-04-11T15:26:02.391Z,44.10
2018-04-11T15:28:29.827Z,43.90
2018-04-11T15:30:57.329Z,45.90
2018-04-11T15:33:24.793Z,46.57
2018-04-11T15:35:52.225Z,49.50
2018-04-11T15:38:19.796Z,49.70
2018-04-11T15:40:47.243Z,48.70
2018-04-11T15:43:14.844Z,48.20
2018-04-11T15:45:42.363Z,49.90
2018-04-11T15:48:09.824Z,48.80
2018-04-11T15:50:37.342Z,45.70
2018-04-11T15:53:04.846Z,46.37
2018-04-11T15:55:32.306Z,44.40
2018-04-11T15:57:59.851Z,44.67
2018-04-11T16:00:27.355Z,44.50
2018-04-11T16:02:55.565Z,44.50
2018-04-11T16:05:23.048Z,44.37
2018-04-11T16:07:50.490Z,42.80
2018-04-11T16:10:17.951Z,41.83
2018-04-11T16:12:45.516Z,45.57
2018-04-11T16:15:12.978Z,44.00
2018-04-11T16:17:40.456Z,43.17
2018-04-11T16:20:08.718Z,44.00
2018-04-11T16:22:36.162Z,44.27
2018-04-11T16:25:03.629Z,46.10
2018-04-11T16:27:31.903Z,44.20
2018-04-11T16:29:59.335Z,43.17
2018-04-11T16:32:26.891Z,43.67
2018-04-11T16:34:54.405Z,44.07
2018-04-11T16:37:21.895Z,45.17
2018-04-11T16:39:49.358Z,44.40
2018-04-11T16:42:16.933Z,43.90
2018-04-11T16:44:44.466Z,44.63
2018-04-11T16:47:11.917Z,43.60
2018-04-11T16:49:39.382Z,42.93
2018-04-11T16:52:06.977Z,44.17
2018-04-11T16:54:35.243Z,45.33
2018-04-11T16:57:03.600Z,43.10
2018-04-11T16:59:31.153Z,41.47
2018-04-11T17:01:58.711Z,45.17
2018-04-11T17:04:26.185Z,43.30
2018-04-11T17:06:53.634Z,41.03
2018-04-11T17:09:21.099Z,41.23
2018-04-11T17:11:48.550Z,42.60
2018-04-11T17:14:16.033Z,44.40
2018-04-11T17:16:44.595Z,41.90
2018-04-11T17:19:12.043Z,41.63
2018-04-11T17:21:51.506Z,43.20
2018-04-11T17:24:31.511Z,44.40
2018-04-11T17:27:11.060Z,44.37
2018-04-11T17:29:50.327Z,44.17
2018-04-11T17:32:17.782Z,43.40
2018-04-11T17:34:46.117Z,44.00
2018-04-11T17:37:13.574Z,43.13
2018-04-11T17:39:41.034Z,42.60
2018-04-11T17:42:08.526Z,43.60
2018-04-11T17:44:36.733Z,42.63
2018-04-11T17:47:04.234Z,41.97
2018-04-11T17:49:31.783Z,43.23
2018-04-11T17:51:59.366Z,48.20
2018-04-11T17:54:28.222Z,46.93
2018-04-11T17:56:56.464Z,47.10
2018-04-11T17:59:23.923Z,45.43
2018-04-11T18:01:51.403Z,45.40
2018-04-11T18:04:18.891Z,43.10
2018-04-11T18:06:47.121Z,43.73
2018-04-11T18:09:14.574Z,43.80
2018-04-11T18:11:42.041Z,44.70
2018-04-11T18:14:09.523Z,45.77
2018-04-11T18:16:37.059Z,44.80
2018-04-11T18:19:04.617Z,45.27
2018-04-11T18:21:32.131Z,46.10
2018-04-11T18:23:59.636Z,46.67
2018-04-11T18:26:27.062Z,45.63
2018-04-11T18:28:54.602Z,45.20
2018-04-11T18:31:22.059Z,43.67
2018-04-11T18:33:50.328Z,49.07
2018-04-11T18:36:17.834Z,46.00
2018-04-11T18:38:45.307Z,46.30
2018-04-11T18:41:13.558Z,44.60
2018-04-11T18:43:41.012Z,46.20
2018-04-11T18:46:08.689Z,45.47
2018-04-11T18:48:37.020Z,44.43
2018-04-11T18:51:04.615Z,46.43
2018-04-11T18:53:32.135Z,47.33
2018-04-11T18:55:59.626Z,45.73
2018-04-11T18:58:27.116Z,47.57
2018-04-11T19:00:55.332Z,50.50
2018-04-11T19:03:22.806Z,50.00
2018-04-11T19:05:50.291Z,46.23
2018-04-11T19:08:17.778Z,47.33
2018-04-11T19:10:45.217Z,46.00
2018-04-11T19:13:13.602Z,46.70
2018-04-11T19:15:41.026Z,46.27
2018-04-11T19:18:08.487Z,45.53
2018-04-11T19:20:37.062Z,46.03
2018-04-11T19:23:05.431Z,45.40
2018-04-11T19:25:32.979Z,44.33
2018-04-11T19:28:00.543Z,43.97
2018-04-11T19:30:28.027Z,40.40
2018-04-11T19:32:56.264Z,44.60
2018-04-11T19:35:23.736Z,43.53
2018-04-11T19:37:51.287Z,42.53
2018-04-11T19:40:19.564Z,45.20
2018-04-11T19:42:47.024Z,46.93
2018-04-11T19:45:14.475Z,43.30
2018-04-11T19:47:42.022Z,42.67
2018-04-11T19:50:09.532Z,41.47
2018-04-11T19:52:37.053Z,41.63
2018-04-11T19:55:04.616Z,41.53
2018-04-11T19:57:32.876Z,44.50
2018-04-11T20:00:00.346Z,45.10
2018-04-11T20:02:27.886Z,42.20
2018-04-11T20:04:55.371Z,43.07
2018-04-11T20:07:23.607Z,42.70
2018-04-11T20:09:51.071Z,40.13
2018-04-11T20:12:18.538Z,40.87
2018-04-11T20:14:46.010Z,43.33
2018-04-11T20:17:14.608Z,43.27
2018-04-11T20:19:42.123Z,43.57
2018-04-11T20:22:09.653Z,42.83
2018-04-11T20:24:37.144Z,40.30
2018-04-11T20:27:04.697Z,43.80
2018-04-11T20:29:32.257Z,41.90
2018-04-11T20:32:00.482Z,41.97
2018-04-11T20:34:27.984Z,42.97
2018-04-11T20:36:55.521Z,41.60
2018-04-11T20:39:23.090Z,42.97
2018-04-11T20:41:50.606Z,42.37
2018-04-11T20:44:18.127Z,39.10
2018-04-11T20:46:46.500Z,38.80
2018-04-11T20:49:14.783Z,37.37
2018-04-11T20:51:43.028Z,40.90
2018-04-11T20:54:10.479Z,38.10
2018-04-11T20:56:38.047Z,38.37
2018-04-11T20:59:06.490Z,32.53
2018-04-11T21:01:34.275Z,30.97
2018-04-11T21:04:01.763Z,31.07
2018-04-11T21:06:29.214Z,31.70
2018-04-11T21:08:56.692Z,29.67
2018-04-11T21:11:25.067Z,29.63
2018-04-11T21:13:53.369Z,28.70
2018-04-11T21:16:20.813Z,28.90
2018-04-11T21:18:48.338Z,32.10
2018-04-11T21:21:15.916Z,29.53
2018-04-11T21:23:54.787Z,37.70
2018-04-11T21:26:23.084Z,35.10
2018-04-11T21:28:50.658Z,32.80
2018-04-11T21:31:18.114Z,38.53
2018-04-11T21:33:46.374Z,38.43
2018-04-11T21:36:13.943Z,41.40
2018-04-11T21:38:42.194Z,41.57
2018-04-11T21:41:09.720Z,39.93
2018-04-11T21:43:37.198Z,43.73
2018-04-11T21:46:04.766Z,46.83
2018-04-11T21:48:32.326Z,49.57
2018-04-11T21:50:59.822Z,47.47
2018-04-11T21:53:27.248Z,47.27
2018-04-11T21:55:54.688Z,47.50
2018-04-11T21:58:22.174Z,46.70
2018-04-11T22:00:49.709Z,46.17
2018-04-11T22:03:17.261Z,45.80
2018-04-11T22:05:44.828Z,46.00
2018-04-11T22:08:12.291Z,45.60
2018-04-11T22:10:39.756Z,43.10
2018-04-11T22:13:07.222Z,44.53
2018-04-11T22:15:35.467Z,40.30
2018-04-11T22:18:02.942Z,41.30
2018-04-11T22:20:30.461Z,42.90
2018-04-11T22:22:58.067Z,42.80
2018-04-11T22:25:25.490Z,45.60
2018-04-11T22:27:53.046Z,43.53
2018-04-11T22:30:20.503Z,45.17
2018-04-11T22:32:47.974Z,49.33
2018-04-11T22:35:15.516Z,51.77
2018-04-11T22:37:43.078Z,50.50
2018-04-11T22:40:10.541Z,51.93
2018-04-11T22:42:38.800Z,55.83
2018-04-11T22:45:06.252Z,61.50
2018-04-11T22:47:33.705Z,63.43
2018-04-11T22:50:01.280Z,60.83
2018-04-11T22:52:28.745Z,61.00
2018-04-11T22:54:56.963Z,60.17
2018-04-11T22:57:24.486Z,65.73
2018-04-11T22:59:52.746Z,63.20
2018-04-11T23:02:21.021Z,65.97
2018-04-11T23:04:49.386Z,66.13
2018-04-11T23:07:16.840Z,70.37
2018-04-11T23:09:44.312Z,69.57
2018-04-11T23:12:11.786Z,66.27
2018-04-11T23:14:40.027Z,70.83
2018-04-11T23:17:07.480Z,67.73
2018-04-11T23:19:34.939Z,71.90
2018-04-11T23:22:02.392Z,70.50
2018-04-11T23:24:29.911Z,68.53
2018-04-11T23:26:57.419Z,75.67
2018-04-11T23:29:25.669Z,73.40
2018-04-11T23:31:53.132Z,72.57
2018-04-11T23:34:20.677Z,72.47
2018-04-11T23:36:48.155Z,69.60
2018-04-11T23:39:15.617Z,73.67
2018-04-11T23:41:43.154Z,72.67
2018-04-11T23:44:10.621Z,74.40
2018-04-11T23:46:38.093Z,72.27
2018-04-11T23:49:06.439Z,71.30
2018-04-11T23:51:33.902Z,72.13
2018-04-11T23:54:01.498Z,70.63
2018-04-11T23:56:29.038Z,66.63
2018-04-11T23:58:57.994Z,67.40
